Stony Ridge, Ohio
Current Conditions -  °F | °C
As of 7:17 AM on Sunday 25 Jan 2015 (Local Time) from KTDZ Reporting Station
Light Snow Light Snow  
Wind Chill: 21°   Ceiling: 600
Heat Index: 31°   Visibility: 8mi
Dew Point: 27°   Wind: 13mph
Humidity: 85%   Direction: 50°NE
Pressure: 29.78"   Gusts: NA
Location:  41.51°N, 83.51°W
Report Text: KTDZ 251217Z AUTO 05011KT 8SM -SN BKN006 OVC011 M01/M03 A2978 RMK AO2 SNB16 P0000 T10061028 TSNO
Loading
Personal Weather Stations






























Interactive Weather Map New forecast layout! Learn more

10-Day Weather Forecast

Advertisements
Track Severe Weather on mobile